AUA63N LHBP-LOWW
Flight info
| Callsign | AUA63N |
|---|---|
| Flight time | 0h 33m |
| Altitude | 16000 |
| Route | GILEP DCT NATEX NATEX2W |
| Aircraft | A320/M-SDE3FGHIRWY/LB1 |
Departure
| Time | 2026-04-25 11:01 |
|---|---|
| Airport | Budapest Liszt Ferenc International Airport (LHBP) |
Arrival
| Time | 2026-04-25 11:35 |
|---|---|
| Airport | Vienna International Airport (LOWW) |
| Time | Latitude | Longitude | Altitude | Speed | Heading |
|---|---|---|---|---|---|
| 2026-04-25 10:17 | 47.43576 | 19.26054 | 458 ft | 0 kts | 312° |
| 2026-04-25 10:44 | 47.43574 | 19.26059 | 457 ft | 3 kts | 314° |
| 2026-04-25 10:44 | 47.43571 | 19.26063 | 456 ft | 0 kts | 313° |
| 2026-04-25 10:52 | 47.43579 | 19.26051 | 457 ft | 3 kts | 313° |
| 2026-04-25 10:52 | 47.43596 | 19.26023 | 457 ft | 5 kts | 313° |
| 2026-04-25 10:52 | 47.43605 | 19.25981 | 456 ft | 5 kts | 244° |
| 2026-04-25 10:52 | 47.43582 | 19.25949 | 457 ft | 4 kts | 222° |
| 2026-04-25 10:53 | 47.43564 | 19.25925 | 457 ft | 3 kts | 222° |
| 2026-04-25 10:53 | 47.43552 | 19.25909 | 457 ft | 2 kts | 222° |
| 2026-04-25 10:53 | 47.43534 | 19.25885 | 457 ft | 6 kts | 222° |
| 2026-04-25 10:53 | 47.43495 | 19.25833 | 456 ft | 6 kts | 222° |
| 2026-04-25 10:54 | 47.43502 | 19.25774 | 457 ft | 9 kts | 318° |
| 2026-04-25 10:54 | 47.43538 | 19.25725 | 457 ft | 12 kts | 316° |
| 2026-04-25 10:54 | 47.43483 | 19.25574 | 456 ft | 16 kts | 222° |
| 2026-04-25 10:54 | 47.43401 | 19.25464 | 457 ft | 14 kts | 222° |
| 2026-04-25 10:55 | 47.43329 | 19.25366 | 457 ft | 15 kts | 221° |
| 2026-04-25 10:55 | 47.43251 | 19.25264 | 457 ft | 16 kts | 222° |
| 2026-04-25 10:55 | 47.43170 | 19.25154 | 457 ft | 13 kts | 222° |
| 2026-04-25 10:55 | 47.43145 | 19.25119 | 457 ft | 0 kts | 222° |
| 2026-04-25 10:59 | 47.43138 | 19.25110 | 457 ft | 5 kts | 222° |
| 2026-04-25 11:00 | 47.43093 | 19.25046 | 456 ft | 10 kts | 231° |
| 2026-04-25 11:00 | 47.43080 | 19.24971 | 457 ft | 7 kts | 281° |
| 2026-04-25 11:00 | 47.43116 | 19.24914 | 457 ft | 9 kts | 314° |
| 2026-04-25 11:00 | 47.43249 | 19.24701 | 455 ft | 60 kts | 312° |
| 2026-04-25 11:01 | 47.43674 | 19.24012 | 453 ft | 121 kts | 312° |
| 2026-04-25 11:01 | 47.44345 | 19.22939 | 640 ft | 151 kts | 311° |
| 2026-04-25 11:01 | 47.45059 | 19.21799 | 1332 ft | 153 kts | 312° |
| 2026-04-25 11:01 | 47.45789 | 19.20597 | 1940 ft | 165 kts | 310° |
| 2026-04-25 11:02 | 47.46589 | 19.19265 | 2336 ft | 183 kts | 309° |
| 2026-04-25 11:02 | 47.47488 | 19.17732 | 2693 ft | 212 kts | 310° |
| 2026-04-25 11:02 | 47.48441 | 19.15909 | 3267 ft | 234 kts | 298° |
| 2026-04-25 11:02 | 47.48867 | 19.13515 | 4039 ft | 250 kts | 275° |
| 2026-04-25 11:03 | 47.48531 | 19.10947 | 4975 ft | 262 kts | 249° |
| 2026-04-25 11:03 | 47.47364 | 19.08811 | 5901 ft | 278 kts | 220° |
| 2026-04-25 11:03 | 47.45635 | 19.07442 | 6808 ft | 285 kts | 210° |
| 2026-04-25 11:03 | 47.43838 | 19.06170 | 7683 ft | 288 kts | 209° |
| 2026-04-25 11:04 | 47.42018 | 19.04873 | 8562 ft | 292 kts | 209° |
| 2026-04-25 11:04 | 47.40177 | 19.03552 | 9425 ft | 297 kts | 209° |
| 2026-04-25 11:04 | 47.38304 | 19.02206 | 10223 ft | 302 kts | 210° |
| 2026-04-25 11:04 | 47.37010 | 19.01247 | 10497 ft | 316 kts | 211° |
| 2026-04-25 11:05 | 47.34331 | 18.99092 | 10827 ft | 346 kts | 213° |
| 2026-04-25 11:05 | 47.32529 | 18.96722 | 11253 ft | 351 kts | 239° |
| 2026-04-25 11:05 | 47.31668 | 18.93413 | 11931 ft | 347 kts | 266° |
| 2026-04-25 11:05 | 47.31922 | 18.89925 | 12671 ft | 344 kts | 290° |
| 2026-04-25 11:06 | 47.32912 | 18.86709 | 13442 ft | 346 kts | 299° |
| 2026-04-25 11:06 | 47.34077 | 18.83592 | 14168 ft | 348 kts | 300° |
| 2026-04-25 11:06 | 47.35208 | 18.80423 | 14829 ft | 351 kts | 297° |
| 2026-04-25 11:06 | 47.36224 | 18.77126 | 15486 ft | 354 kts | 293° |
| 2026-04-25 11:07 | 47.37076 | 18.73699 | 15889 ft | 357 kts | 289° |
| 2026-04-25 11:07 | 47.37912 | 18.70237 | 16007 ft | 362 kts | 294° |
| 2026-04-25 11:07 | 47.38955 | 18.66753 | 16031 ft | 379 kts | 296° |
| 2026-04-25 11:07 | 47.40040 | 18.63419 | 16028 ft | 383 kts | 297° |
| 2026-04-25 11:08 | 47.40344 | 18.62511 | 16026 ft | 384 kts | 297° |
| 2026-04-25 11:08 | 47.41495 | 18.58958 | 16030 ft | 385 kts | 293° |
| 2026-04-25 11:08 | 47.42364 | 18.55259 | 16035 ft | 387 kts | 289° |
| 2026-04-25 11:08 | 47.43178 | 18.51474 | 16033 ft | 387 kts | 288° |
| 2026-04-25 11:09 | 47.43964 | 18.47666 | 16035 ft | 387 kts | 288° |
| 2026-04-25 11:09 | 47.44729 | 18.43868 | 16043 ft | 387 kts | 288° |
| 2026-04-25 11:09 | 47.45490 | 18.40049 | 16044 ft | 387 kts | 287° |
| 2026-04-25 11:09 | 47.46250 | 18.36236 | 16041 ft | 387 kts | 287° |
| 2026-04-25 11:10 | 47.47016 | 18.32415 | 16041 ft | 387 kts | 288° |
| 2026-04-25 11:10 | 47.47534 | 18.29841 | 16045 ft | 387 kts | 288° |
| 2026-04-25 11:10 | 47.48702 | 18.24867 | 16041 ft | 386 kts | 296° |
| 2026-04-25 11:10 | 47.49930 | 18.21344 | 16034 ft | 386 kts | 298° |
| 2026-04-25 11:11 | 47.51173 | 18.17828 | 16036 ft | 386 kts | 298° |
| 2026-04-25 11:11 | 47.52417 | 18.14299 | 16040 ft | 386 kts | 298° |
| 2026-04-25 11:11 | 47.53656 | 18.10773 | 16039 ft | 386 kts | 298° |
| 2026-04-25 11:11 | 47.54891 | 18.07250 | 16037 ft | 386 kts | 298° |
| 2026-04-25 11:12 | 47.56128 | 18.03711 | 16036 ft | 386 kts | 298° |
| 2026-04-25 11:12 | 47.57361 | 18.00176 | 16043 ft | 386 kts | 298° |
| 2026-04-25 11:12 | 47.58593 | 17.96643 | 16043 ft | 386 kts | 298° |
| 2026-04-25 11:12 | 47.59823 | 17.93105 | 16041 ft | 386 kts | 297° |
| 2026-04-25 11:13 | 47.61049 | 17.89564 | 16040 ft | 386 kts | 297° |
| 2026-04-25 11:13 | 47.62278 | 17.86015 | 16040 ft | 386 kts | 297° |
| 2026-04-25 11:13 | 47.63505 | 17.82470 | 16040 ft | 386 kts | 297° |
| 2026-04-25 11:13 | 47.64732 | 17.78930 | 16049 ft | 386 kts | 297° |
| 2026-04-25 11:14 | 47.65942 | 17.75441 | 16050 ft | 386 kts | 297° |
| 2026-04-25 11:14 | 47.67185 | 17.71846 | 16047 ft | 386 kts | 297° |
| 2026-04-25 11:14 | 47.68411 | 17.68304 | 16052 ft | 386 kts | 297° |
| 2026-04-25 11:14 | 47.69637 | 17.64755 | 16049 ft | 386 kts | 297° |
| 2026-04-25 11:15 | 47.70832 | 17.61281 | 15890 ft | 382 kts | 297° |
| 2026-04-25 11:15 | 47.72037 | 17.57765 | 15254 ft | 381 kts | 297° |
| 2026-04-25 11:15 | 47.73223 | 17.54279 | 14711 ft | 377 kts | 296° |
| 2026-04-25 11:15 | 47.74093 | 17.50636 | 14166 ft | 374 kts | 284° |
| 2026-04-25 11:16 | 47.74195 | 17.43071 | 13585 ft | 362 kts | 266° |
| 2026-04-25 11:16 | 47.73935 | 17.39415 | 13327 ft | 360 kts | 266° |
| 2026-04-25 11:16 | 47.73673 | 17.35678 | 13009 ft | 358 kts | 266° |
| 2026-04-25 11:17 | 47.73417 | 17.32049 | 12703 ft | 357 kts | 266° |
| 2026-04-25 11:17 | 47.73158 | 17.28388 | 12387 ft | 356 kts | 266° |
| 2026-04-25 11:17 | 47.72898 | 17.24742 | 12019 ft | 354 kts | 266° |
| 2026-04-25 11:17 | 47.72636 | 17.21113 | 11645 ft | 353 kts | 266° |
| 2026-04-25 11:18 | 47.72374 | 17.17493 | 11268 ft | 352 kts | 266° |
| 2026-04-25 11:18 | 47.72130 | 17.14040 | 10915 ft | 350 kts | 268° |
| 2026-04-25 11:18 | 47.72311 | 17.10482 | 10549 ft | 344 kts | 286° |
| 2026-04-25 11:18 | 47.73228 | 17.07243 | 10188 ft | 339 kts | 304° |
| 2026-04-25 11:19 | 47.74762 | 17.04627 | 9776 ft | 332 kts | 320° |
| 2026-04-25 11:19 | 47.76706 | 17.02872 | 9432 ft | 325 kts | 337° |
| 2026-04-25 11:19 | 47.78822 | 17.01819 | 9047 ft | 318 kts | 341° |
| 2026-04-25 11:19 | 47.80900 | 17.00826 | 8764 ft | 307 kts | 340° |
| 2026-04-25 11:20 | 47.82897 | 16.99864 | 8522 ft | 296 kts | 340° |
| 2026-04-25 11:20 | 47.84827 | 16.98933 | 8316 ft | 286 kts | 340° |
| 2026-04-25 11:20 | 47.86686 | 16.98039 | 8117 ft | 276 kts | 340° |
| 2026-04-25 11:20 | 47.88484 | 16.97172 | 7921 ft | 267 kts | 340° |
| 2026-04-25 11:21 | 47.90236 | 16.96325 | 7720 ft | 263 kts | 339° |
| 2026-04-25 11:21 | 47.91974 | 16.95485 | 7515 ft | 262 kts | 339° |
| 2026-04-25 11:21 | 47.93703 | 16.94649 | 7318 ft | 261 kts | 339° |
| 2026-04-25 11:21 | 47.95340 | 16.93561 | 7118 ft | 256 kts | 322° |
| 2026-04-25 11:22 | 47.96499 | 16.91602 | 6930 ft | 253 kts | 297° |
| 2026-04-25 11:22 | 47.96890 | 16.89967 | 6807 ft | 253 kts | 282° |
| 2026-04-25 11:22 | 47.96684 | 16.86460 | 6648 ft | 259 kts | 258° |
| 2026-04-25 11:22 | 47.96209 | 16.83888 | 6529 ft | 260 kts | 258° |
| 2026-04-25 11:23 | 47.95553 | 16.81384 | 6403 ft | 264 kts | 240° |
| 2026-04-25 11:23 | 47.94168 | 16.79552 | 6276 ft | 274 kts | 210° |
| 2026-04-25 11:23 | 47.92279 | 16.78993 | 6145 ft | 286 kts | 178° |
| 2026-04-25 11:23 | 47.90320 | 16.79639 | 6010 ft | 290 kts | 168° |
| 2026-04-25 11:24 | 47.88380 | 16.80440 | 5980 ft | 289 kts | 168° |
| 2026-04-25 11:24 | 47.86440 | 16.81256 | 5985 ft | 290 kts | 168° |
| 2026-04-25 11:24 | 47.84501 | 16.82075 | 5985 ft | 290 kts | 168° |
| 2026-04-25 11:24 | 47.82563 | 16.82889 | 5976 ft | 288 kts | 167° |
| 2026-04-25 11:25 | 47.80632 | 16.83692 | 5980 ft | 288 kts | 167° |
| 2026-04-25 11:25 | 47.78702 | 16.84489 | 5985 ft | 288 kts | 167° |
| 2026-04-25 11:25 | 47.76771 | 16.85287 | 5984 ft | 288 kts | 167° |
| 2026-04-25 11:25 | 47.74842 | 16.86062 | 5984 ft | 287 kts | 172° |
| 2026-04-25 11:26 | 47.72907 | 16.86063 | 5855 ft | 270 kts | 199° |
| 2026-04-25 11:26 | 47.71296 | 16.84922 | 5723 ft | 249 kts | 224° |
| 2026-04-25 11:26 | 47.70208 | 16.83023 | 5610 ft | 239 kts | 246° |
| 2026-04-25 11:26 | 47.69664 | 16.80730 | 5519 ft | 235 kts | 260° |
| 2026-04-25 11:27 | 47.69591 | 16.78354 | 5369 ft | 230 kts | 283° |
| 2026-04-25 11:27 | 47.70230 | 16.76204 | 5208 ft | 229 kts | 308° |
| 2026-04-25 11:27 | 47.71460 | 16.74722 | 5071 ft | 232 kts | 333° |
| 2026-04-25 11:27 | 47.71968 | 16.74428 | 5018 ft | 233 kts | 340° |
| 2026-04-25 11:28 | 47.74065 | 16.73557 | 4828 ft | 233 kts | 342° |
| 2026-04-25 11:28 | 47.75607 | 16.72930 | 4673 ft | 233 kts | 342° |
| 2026-04-25 11:28 | 47.77195 | 16.72282 | 4509 ft | 233 kts | 342° |
| 2026-04-25 11:28 | 47.78763 | 16.71639 | 4343 ft | 234 kts | 342° |
| 2026-04-25 11:29 | 47.80310 | 16.71003 | 4205 ft | 234 kts | 342° |
| 2026-04-25 11:29 | 47.81879 | 16.70355 | 4055 ft | 234 kts | 342° |
| 2026-04-25 11:29 | 47.83445 | 16.69708 | 3900 ft | 233 kts | 343° |
| 2026-04-25 11:29 | 47.85015 | 16.69059 | 3756 ft | 235 kts | 343° |
| 2026-04-25 11:30 | 47.86590 | 16.68415 | 3604 ft | 234 kts | 341° |
| 2026-04-25 11:30 | 47.88145 | 16.67786 | 3448 ft | 230 kts | 341° |
| 2026-04-25 11:30 | 47.89652 | 16.67183 | 3297 ft | 219 kts | 341° |
| 2026-04-25 11:30 | 47.91096 | 16.66604 | 3143 ft | 212 kts | 341° |
| 2026-04-25 11:31 | 47.92501 | 16.66021 | 3037 ft | 209 kts | 341° |
| 2026-04-25 11:31 | 47.93902 | 16.65433 | 2977 ft | 209 kts | 340° |
| 2026-04-25 11:31 | 47.95286 | 16.64853 | 2980 ft | 202 kts | 341° |
| 2026-04-25 11:31 | 47.96598 | 16.64303 | 2948 ft | 191 kts | 341° |
| 2026-04-25 11:32 | 47.97847 | 16.63778 | 2825 ft | 183 kts | 341° |
| 2026-04-25 11:32 | 47.99069 | 16.63263 | 2576 ft | 184 kts | 343° |
| 2026-04-25 11:32 | 48.00290 | 16.62749 | 2328 ft | 180 kts | 342° |
| 2026-04-25 11:32 | 48.01465 | 16.62255 | 2096 ft | 170 kts | 342° |
| 2026-04-25 11:33 | 48.02570 | 16.61791 | 1872 ft | 159 kts | 340° |
| 2026-04-25 11:33 | 48.03593 | 16.61360 | 1697 ft | 146 kts | 341° |
| 2026-04-25 11:33 | 48.04536 | 16.60962 | 1494 ft | 137 kts | 342° |
| 2026-04-25 11:33 | 48.05444 | 16.60575 | 1315 ft | 133 kts | 341° |
| 2026-04-25 11:34 | 48.06337 | 16.60188 | 1134 ft | 133 kts | 340° |
| 2026-04-25 11:34 | 48.07224 | 16.59836 | 967 ft | 132 kts | 340° |
| 2026-04-25 11:34 | 48.08101 | 16.59467 | 815 ft | 131 kts | 338° |
| 2026-04-25 11:34 | 48.08979 | 16.59087 | 648 ft | 131 kts | 339° |
| 2026-04-25 11:35 | 48.09767 | 16.58753 | 625 ft | 97 kts | 343° |
| 2026-04-25 11:35 | 48.10254 | 16.58545 | 619 ft | 48 kts | 343° |
| 2026-04-25 11:35 | 48.10501 | 16.58439 | 614 ft | 34 kts | 344° |
| 2026-04-25 11:35 | 48.10714 | 16.58348 | 623 ft | 30 kts | 344° |
| 2026-04-25 11:36 | 48.10888 | 16.58275 | 623 ft | 22 kts | 344° |
| 2026-04-25 11:36 | 48.11013 | 16.58145 | 612 ft | 22 kts | 307° |
| 2026-04-25 11:36 | 48.11071 | 16.57986 | 610 ft | 16 kts | 297° |
| 2026-04-25 11:36 | 48.11120 | 16.57836 | 614 ft | 15 kts | 294° |
| 2026-04-25 11:37 | 48.11159 | 16.57711 | 623 ft | 12 kts | 295° |
| 2026-04-25 11:37 | 48.11195 | 16.57601 | 618 ft | 12 kts | 296° |
| 2026-04-25 11:37 | 48.11233 | 16.57484 | 620 ft | 12 kts | 296° |
| 2026-04-25 11:37 | 48.11269 | 16.57373 | 620 ft | 12 kts | 296° |
| 2026-04-25 11:38 | 48.11307 | 16.57255 | 622 ft | 14 kts | 296° |
| 2026-04-25 11:38 | 48.11352 | 16.57119 | 616 ft | 15 kts | 296° |
| 2026-04-25 11:38 | 48.11402 | 16.56970 | 616 ft | 17 kts | 296° |
| 2026-04-25 11:38 | 48.11456 | 16.56804 | 617 ft | 19 kts | 296° |
| 2026-04-25 11:39 | 48.11517 | 16.56614 | 620 ft | 21 kts | 296° |
| 2026-04-25 11:39 | 48.11583 | 16.56409 | 614 ft | 21 kts | 296° |
| 2026-04-25 11:39 | 48.11642 | 16.56229 | 613 ft | 18 kts | 296° |
| 2026-04-25 11:39 | 48.11698 | 16.56061 | 617 ft | 18 kts | 297° |
| 2026-04-25 11:40 | 48.11753 | 16.55889 | 622 ft | 20 kts | 296° |
| 2026-04-25 11:40 | 48.11811 | 16.55714 | 621 ft | 15 kts | 296° |
| 2026-04-25 11:40 | 48.11842 | 16.55615 | 616 ft | 4 kts | 296° |
| 2026-04-25 11:40 | 48.11859 | 16.55581 | 611 ft | 5 kts | 327° |
| 2026-04-25 11:41 | 48.11890 | 16.55604 | 606 ft | 6 kts | 36° |
| 2026-04-25 11:41 | 48.11924 | 16.55629 | 604 ft | 0 kts | 26° |
| 2026-04-25 11:41 | 48.11932 | 16.55635 | 603 ft | 1 kts | 27° |
| 2026-04-25 11:41 | 48.11933 | 16.55636 | 603 ft | 0 kts | 27° |